Time;durP1;ratioP1;P1;durP2;ratioP2;P2;SDS_P1;SDS_P2;PMS_P1;PMS_P2;Temp;Humidity;BMP_temperature;BMP_pressure;BME280_temperature;BME280_humidity;BME280_pressure;Samples;Min_cycle;Max_cycle;Signal;HPM_P1;HPM_P2
2022/01/28 00:01:07;;;;;;;8.18;5.37;;;4.60;99.90;;;;;;1812203;77;21167;-79
2022/01/28 00:03:36;;;;;;;8.55;6.08;;;4.50;99.90;;;;;;1822940;77;21106;-78
2022/01/28 00:06:04;;;;;;;6.85;5.65;;;4.40;99.90;;;;;;1826194;77;21109;-78
2022/01/28 00:08:31;;;;;;;8.95;5.83;;;4.30;99.90;;;;;;1830160;77;21481;-79
2022/01/28 00:10:59;;;;;;;7.53;5.78;;;4.30;99.90;;;;;;1822963;78;21117;-77
2022/01/28 00:13:33;;;;;;;8.55;6.08;;;4.30;99.90;;;;;;1826871;78;21167;-79
2022/01/28 00:16:23;;;;;;;8.28;5.83;;;4.30;99.90;;;;;;1828902;78;21168;-80
2022/01/28 00:18:55;;;;;;;13.95;5.53;;;4.30;99.90;;;;;;1825923;77;21108;-79
2022/01/28 00:39:49;;;;;;;8.88;5.90;;;4.20;99.90;;;;;;1822764;77;21399;-78
2022/01/28 00:42:17;;;;;;;7.58;6.60;;;4.20;99.90;;;;;;1822498;78;21082;-77
2022/01/28 00:44:45;;;;;;;6.42;5.70;;;4.20;99.90;;;;;;1814740;77;21117;-77
2022/01/28 00:47:13;;;;;;;8.60;5.92;;;4.20;99.90;;;;;;1824165;78;21548;-79
2022/01/28 00:49:40;;;;;;;12.35;6.35;;;4.20;99.90;;;;;;1823500;77;21097;-78
2022/01/28 00:52:07;;;;;;;8.78;6.37;;;4.20;99.90;;;;;;1821603;77;21050;-79
2022/01/28 00:54:35;;;;;;;7.55;5.87;;;4.20;99.90;;;;;;1820306;77;21514;-78
2022/01/28 00:57:04;;;;;;;7.70;6.05;;;4.10;99.90;;;;;;1823433;77;21153;-79
2022/01/28 00:59:31;;;;;;;6.97;6.15;;;4.10;99.90;;;;;;1823609;77;21583;-79
2022/01/28 01:01:58;;;;;;;7.55;6.45;;;4.10;99.90;;;;;;1823220;77;21141;-79
2022/01/28 01:04:26;;;;;;;6.97;6.20;;;4.10;99.90;;;;;;1820324;78;21167;-79
2022/01/28 01:06:53;;;;;;;9.43;6.95;;;4.00;99.90;;;;;;1819147;77;21455;-79
2022/01/28 01:09:20;;;;;;;11.03;6.55;;;4.10;99.90;;;;;;1821119;77;21101;-79
2022/01/28 01:11:48;;;;;;;6.30;5.70;;;4.00;99.90;;;;;;1830232;78;21053;-79
2022/01/28 01:14:15;;;;;;;8.38;5.62;;;4.00;99.90;;;;;;1823835;77;21105;-79
2022/01/28 01:17:03;;;;;;;6.22;4.37;;;4.20;99.90;;;;;;1826020;77;21098;-77
2022/01/28 01:19:22;;;;;;;8.50;5.50;;;4.40;99.90;;;;;;1822993;77;21485;-77
2022/01/28 01:21:46;;;;;;;10.95;4.95;;;4.50;99.90;;;;;;1821334;77;21180;-77
2022/01/28 01:24:22;;;;;;;8.05;4.97;;;4.60;99.90;;;;;;1817608;77;21088;-79
2022/01/28 01:26:42;;;;;;;5.45;4.28;;;4.60;99.90;;;;;;1818546;77;21109;-77
2022/01/28 01:29:12;;;;;;;6.58;4.17;;;4.70;99.90;;;;;;1830107;78;21054;-77
2022/01/28 01:31:41;;;;;;;7.45;4.40;;;4.70;99.90;;;;;;1829741;77;21329;-78
2022/01/28 01:34:14;;;;;;;4.83;3.90;;;4.70;99.90;;;;;;1823592;77;21183;-78
2022/01/28 01:36:36;;;;;;;8.40;4.47;;;4.60;99.90;;;;;;1824502;77;21150;-78
2022/01/28 01:39:04;;;;;;;4.65;3.77;;;4.70;99.90;;;;;;1822768;77;21482;-77
2022/01/28 01:41:47;;;;;;;3.70;3.40;;;4.70;99.90;;;;;;1820359;77;21101;-77
2022/01/28 01:44:09;;;;;;;5.65;4.08;;;4.60;99.90;;;;;;1821982;77;21105;-78
2022/01/28 01:46:57;;;;;;;6.53;3.90;;;4.40;99.90;;;;;;1825467;77;21160;-78
2022/01/28 01:52:03;;;;;;;4.90;3.87;;;4.30;99.90;;;;;;1822647;78;21134;-80
2022/01/28 01:54:40;;;;;;;7.03;4.00;;;4.20;99.90;;;;;;1823556;77;21113;-79
2022/01/28 01:57:09;;;;;;;5.25;4.50;;;4.00;99.90;;;;;;1821798;79;21498;-78
2022/01/28 01:59:37;;;;;;;4.12;3.65;;;4.00;99.90;;;;;;1822849;78;21097;-79
2022/01/28 02:02:06;;;;;;;6.20;4.50;;;4.00;99.90;;;;;;1822122;77;21510;-79
2022/01/28 02:04:34;;;;;;;5.35;4.12;;;4.00;99.90;;;;;;1823207;77;21459;-79
2022/01/28 02:07:01;;;;;;;6.03;4.28;;;3.90;99.90;;;;;;1822246;77;21471;-80
2022/01/28 02:09:28;;;;;;;5.20;4.20;;;3.70;99.90;;;;;;1821735;77;21070;-79
2022/01/28 02:11:57;;;;;;;7.08;4.55;;;3.80;99.90;;;;;;1822106;77;21565;-79
2022/01/28 02:14:24;;;;;;;7.45;4.80;;;3.80;99.90;;;;;;1822832;77;21095;-79
2022/01/28 02:16:51;;;;;;;5.58;4.50;;;3.80;99.90;;;;;;1816837;79;21470;-78
2022/01/28 02:19:19;;;;;;;5.70;4.35;;;3.90;99.90;;;;;;1821649;77;21262;-79
2022/01/28 02:21:50;;;;;;;4.83;4.33;;;3.80;99.90;;;;;;1816297;77;21086;-78
2022/01/28 02:24:19;;;;;;;5.50;4.40;;;3.80;99.90;;;;;;1821014;77;21227;-79
2022/01/28 02:26:44;;;;;;;6.92;4.22;;;3.80;99.90;;;;;;1826692;77;21105;-79
2022/01/28 02:29:15;;;;;;;7.17;4.50;;;3.80;99.90;;;;;;1823494;77;21167;-79
2022/01/28 02:31:42;;;;;;;5.72;3.87;;;3.80;99.90;;;;;;1828358;77;21552;-79
2022/01/28 02:34:12;;;;;;;7.35;4.03;;;3.80;99.90;;;;;;1822152;77;21097;-79
2022/01/28 02:36:39;;;;;;;8.53;4.15;;;3.80;99.90;;;;;;1827515;77;21567;-79
2022/01/28 02:39:07;;;;;;;5.00;4.08;;;3.80;99.90;;;;;;1830000;77;21576;-79
2022/01/28 02:41:39;;;;;;;6.50;3.77;;;3.70;99.90;;;;;;1825576;77;21580;-79
2022/01/28 02:44:17;;;;;;;4.97;4.15;;;3.60;99.90;;;;;;1818612;77;21105;-78
2022/01/28 02:46:41;;;;;;;5.05;4.42;;;3.50;99.90;;;;;;1821050;77;21089;-78
2022/01/28 02:49:09;;;;;;;4.87;4.17;;;3.40;99.90;;;;;;1821951;77;21172;-80
2022/01/28 02:51:36;;;;;;;6.20;4.53;;;3.40;99.90;;;;;;1820986;77;21111;-79
2022/01/28 02:54:14;;;;;;;11.55;4.65;;;3.30;99.90;;;;;;1821759;77;21090;-80
2022/01/28 02:56:37;;;;;;;7.95;4.87;;;3.30;99.90;;;;;;1817552;77;21508;-79
2022/01/28 02:59:02;;;;;;;7.80;4.97;;;3.30;99.90;;;;;;1826679;77;21439;-79
2022/01/28 03:01:30;;;;;;;10.45;5.22;;;3.20;99.90;;;;;;1820617;77;21122;-79
2022/01/28 03:04:00;;;;;;;4.37;3.98;;;3.10;99.90;;;;;;1824369;77;21083;-79
2022/01/28 03:06:26;;;;;;;5.97;4.40;;;3.10;99.90;;;;;;1821131;77;21428;-79
2022/01/28 03:08:59;;;;;;;5.45;4.10;;;3.10;99.90;;;;;;1821438;77;21167;-79
2022/01/28 03:14:15;;;;;;;9.53;4.92;;;3.20;99.90;;;;;;1822159;77;21519;-79
2022/01/28 03:16:33;;;;;;;6.28;4.67;;;3.20;99.90;;;;;;1829971;78;21092;-79
2022/01/28 03:19:15;;;;;;;7.17;4.25;;;3.20;99.90;;;;;;1829999;78;21552;-78
2022/01/28 03:24:01;;;;;;;5.92;4.65;;;3.20;99.90;;;;;;1823636;77;21563;-79
2022/01/28 03:26:31;;;;;;;4.70;4.20;;;3.20;99.90;;;;;;1827776;77;21109;-79
2022/01/28 03:28:58;;;;;;;8.35;4.58;;;3.30;99.90;;;;;;1830148;77;21163;-79
2022/01/28 03:31:25;;;;;;;6.40;4.60;;;3.40;99.90;;;;;;1822882;78;21423;-79
2022/01/28 03:33:52;;;;;;;8.70;4.40;;;3.40;99.90;;;;;;1822165;78;21105;-78
2022/01/28 03:36:19;;;;;;;8.25;4.58;;;3.40;99.90;;;;;;1824431;77;21148;-79
2022/01/28 03:38:48;;;;;;;6.47;4.17;;;3.30;99.90;;;;;;1830171;78;21112;-79
2022/01/28 03:41:20;;;;;;;6.22;4.12;;;3.30;99.90;;;;;;1829340;78;21183;-79
2022/01/28 03:43:48;;;;;;;8.08;4.42;;;3.30;99.90;;;;;;1819534;77;21230;-78
2022/01/28 03:46:19;;;;;;;6.67;4.17;;;3.30;99.90;;;;;;1820935;77;21172;-79
2022/01/28 03:48:47;;;;;;;6.17;3.67;;;3.20;99.90;;;;;;1822045;77;21097;-78
2022/01/28 03:51:14;;;;;;;4.83;3.20;;;3.20;99.90;;;;;;1823887;77;21090;-79
2022/01/28 03:53:41;;;;;;;6.33;4.62;;;3.20;99.90;;;;;;1824501;77;21110;-79
2022/01/28 03:56:09;;;;;;;7.70;4.17;;;3.20;99.90;;;;;;1824883;78;21090;-79
2022/01/28 03:58:37;;;;;;;10.68;4.12;;;3.20;99.90;;;;;;1819258;78;21544;-78
2022/01/28 04:01:11;;;;;;;6.00;4.58;;;3.20;99.90;;;;;;1821953;77;21189;-78
2022/01/28 04:11:29;;;;;;;6.28;4.10;;;3.40;99.90;;;;;;1823334;77;21178;-79
2022/01/28 04:13:59;;;;;;;6.03;3.83;;;3.50;99.90;;;;;;1821404;78;21090;-79
2022/01/28 04:19:01;;;;;;;9.43;4.25;;;3.60;99.90;;;;;;1802103;77;21102;-80
2022/01/28 04:21:29;;;;;;;4.20;3.80;;;3.60;99.90;;;;;;1820418;77;21090;-79
2022/01/28 04:23:56;;;;;;;8.10;3.80;;;3.70;99.90;;;;;;1822749;77;21168;-79
2022/01/28 04:26:24;;;;;;;6.12;3.00;;;3.70;99.90;;;;;;1826747;77;21203;-79
2022/01/28 04:28:51;;;;;;;11.30;3.72;;;3.70;99.90;;;;;;1819365;77;21183;-79
2022/01/28 04:31:18;;;;;;;6.53;3.58;;;3.90;99.90;;;;;;1819076;77;21090;-79
2022/01/28 04:33:46;;;;;;;6.50;4.28;;;3.90;99.90;;;;;;1817377;78;21482;-79
2022/01/28 04:36:16;;;;;;;6.15;4.30;;;3.80;99.90;;;;;;1817557;77;21475;-79
2022/01/28 04:38:51;;;;;;;8.73;4.40;;;3.90;99.90;;;;;;1824572;78;21082;-79
2022/01/28 04:41:21;;;;;;;9.30;4.17;;;3.90;99.90;;;;;;1823239;77;21125;-80
2022/01/28 04:43:47;;;;;;;6.95;4.08;;;3.90;99.90;;;;;;1819402;78;21214;-79
2022/01/28 04:46:27;;;;;;;5.78;3.75;;;3.90;99.90;;;;;;1828594;78;21097;-79
2022/01/28 04:48:50;;;;;;;7.85;4.10;;;3.80;99.90;;;;;;1829203;78;21147;-78
2022/01/28 04:59:34;;;;;;;7.50;4.60;;;3.60;99.90;;;;;;1822046;77;21209;-77
2022/01/28 05:10:15;;;;;;;6.85;4.53;;;3.40;99.90;;;;;;1824734;77;21169;-80
2022/01/28 05:12:48;;;;;;;7.58;4.62;;;3.40;99.90;;;;;;1824894;78;21137;-78
2022/01/28 05:15:16;;;;;;;7.40;4.33;;;3.30;99.90;;;;;;1824507;77;21116;-79
2022/01/28 05:23:21;;;;;;;16.55;5.25;;;3.30;99.90;;;;;;1827750;76;21067;-79
2022/01/28 05:28:02;;;;;;;10.35;4.37;;;3.00;99.90;;;;;;1831207;77;21110;-78
2022/01/28 05:30:34;;;;;;;8.08;4.53;;;2.90;99.90;;;;;;1827789;77;21619;-78
2022/01/28 05:33:03;;;;;;;6.35;4.35;;;2.90;99.90;;;;;;1830342;78;21415;-77
2022/01/28 05:35:31;;;;;;;10.65;4.92;;;2.80;99.90;;;;;;1830182;77;21234;-79
2022/01/28 05:37:58;;;;;;;12.50;4.53;;;2.70;99.90;;;;;;1831253;78;21100;-80
2022/01/28 05:40:25;;;;;;;8.58;4.65;;;2.80;99.90;;;;;;1821509;77;21164;-79
2022/01/28 05:42:53;;;;;;;5.62;4.65;;;2.70;99.90;;;;;;1822168;77;21106;-79
2022/01/28 05:45:20;;;;;;;7.53;4.90;;;2.70;99.90;;;;;;1824208;78;21082;-80
2022/01/28 05:47:47;;;;;;;8.18;5.05;;;2.70;99.90;;;;;;1824366;77;21485;-80
2022/01/28 05:50:18;;;;;;;10.35;5.42;;;2.70;99.90;;;;;;1830325;77;21171;-80
2022/01/28 05:52:46;;;;;;;7.50;5.00;;;2.80;99.90;;;;;;1829256;77;21090;-79
2022/01/28 05:55:14;;;;;;;8.98;5.47;;;2.80;99.90;;;;;;1821899;77;21506;-79
2022/01/28 05:57:41;;;;;;;8.65;5.25;;;2.70;99.90;;;;;;1822673;77;21128;-79
2022/01/28 06:00:10;;;;;;;8.65;5.05;;;2.70;99.90;;;;;;1823690;77;21497;-79
2022/01/28 06:02:38;;;;;;;10.13;5.42;;;2.60;99.90;;;;;;1821331;78;21151;-78
2022/01/28 06:05:05;;;;;;;13.68;5.35;;;2.60;99.90;;;;;;1823138;77;21160;-79
2022/01/28 06:07:32;;;;;;;6.50;5.15;;;2.60;99.90;;;;;;1824108;77;21526;-78
2022/01/28 06:10:00;;;;;;;9.30;5.25;;;2.60;99.90;;;;;;1825193;77;21145;-79
2022/01/28 06:12:27;;;;;;;7.83;5.30;;;2.60;99.90;;;;;;1817972;78;21485;-79
2022/01/28 06:14:54;;;;;;;9.00;5.53;;;2.50;99.90;;;;;;1818756;77;21234;-80
2022/01/28 06:17:21;;;;;;;13.98;5.55;;;2.50;99.90;;;;;;1820732;77;21171;-78
2022/01/28 06:19:49;;;;;;;8.93;5.65;;;2.60;99.90;;;;;;1821609;78;21164;-79
2022/01/28 06:22:16;;;;;;;7.00;5.17;;;2.60;99.90;;;;;;1821818;77;21086;-84
2022/01/28 06:24:43;;;;;;;9.03;4.85;;;2.50;99.90;;;;;;1820609;77;21520;-79
2022/01/28 06:27:11;;;;;;;10.90;5.62;;;2.50;99.90;;;;;;1824882;77;21144;-80
2022/01/28 06:29:57;;;;;;;9.30;5.30;;;2.60;99.90;;;;;;1822747;78;21066;-79
2022/01/28 06:32:25;;;;;;;8.63;5.20;;;2.60;99.90;;;;;;1846864;77;21536;-79
2022/01/28 06:34:52;;;;;;;10.08;6.30;;;2.50;99.90;;;;;;1883353;75;21175;-81
2022/01/28 06:37:21;;;;;;;14.38;6.20;;;2.50;99.90;;;;;;1880096;76;21067;-79
2022/01/28 06:39:48;;;;;;;17.32;6.50;;;2.40;99.90;;;;;;1879944;76;21138;-81
2022/01/28 06:42:16;;;;;;;7.17;5.20;;;2.30;99.90;;;;;;1879996;76;21079;-79
2022/01/28 06:44:43;;;;;;;9.95;5.85;;;2.30;99.90;;;;;;1879939;76;21563;-79
2022/01/28 06:47:11;;;;;;;7.78;4.78;;;2.30;99.90;;;;;;1856159;76;21109;-80
2022/01/28 06:49:39;;;;;;;10.08;5.90;;;2.30;99.90;;;;;;1880027;76;21086;-80
2022/01/28 06:52:07;;;;;;;10.53;6.60;;;2.30;99.90;;;;;;1879963;76;21462;-87
2022/01/28 06:54:35;;;;;;;15.08;6.17;;;2.30;99.90;;;;;;1879994;76;21457;-78
2022/01/28 06:57:02;;;;;;;8.50;5.70;;;2.30;99.90;;;;;;1879953;76;21039;-79
2022/01/28 06:59:29;;;;;;;8.20;5.75;;;2.40;99.90;;;;;;1879828;76;21182;-78
2022/01/28 07:01:57;;;;;;;11.48;6.28;;;2.40;99.90;;;;;;1879924;76;21112;-79
2022/01/28 07:04:24;;;;;;;11.50;6.35;;;2.50;99.90;;;;;;1880058;76;21070;-80
2022/01/28 07:06:53;;;;;;;11.63;6.97;;;2.50;99.90;;;;;;1879940;76;21434;-76
2022/01/28 07:09:20;;;;;;;11.53;6.55;;;2.50;99.90;;;;;;1879889;76;21042;-79
2022/01/28 07:11:47;;;;;;;17.85;6.30;;;2.50;99.90;;;;;;1880061;76;21016;-77
2022/01/28 07:14:15;;;;;;;10.18;6.33;;;2.50;99.90;;;;;;1856601;76;21108;-76
2022/01/28 07:16:42;;;;;;;10.63;5.80;;;2.50;99.90;;;;;;1880050;76;21120;-76
2022/01/28 07:19:09;;;;;;;11.00;6.17;;;2.60;99.90;;;;;;1880171;76;21139;-75
2022/01/28 07:21:37;;;;;;;10.20;6.62;;;2.60;99.90;;;;;;1880065;76;21411;-76
2022/01/28 07:24:04;;;;;;;14.10;6.55;;;2.80;99.90;;;;;;1880109;76;21470;-77
2022/01/28 07:26:32;;;;;;;12.15;6.10;;;2.70;99.90;;;;;;1879908;76;21039;-77
2022/01/28 07:28:59;;;;;;;8.45;6.05;;;2.80;99.90;;;;;;1879967;76;21046;-77
2022/01/28 07:31:26;;;;;;;9.75;5.28;;;2.80;99.90;;;;;;1880016;76;21042;-76
2022/01/28 07:33:55;;;;;;;8.83;5.20;;;2.90;99.90;;;;;;1880029;76;21129;-76
2022/01/28 07:36:22;;;;;;;9.83;4.87;;;3.00;99.90;;;;;;1855962;76;21120;-77
2022/01/28 07:38:51;;;;;;;7.35;4.45;;;3.30;99.90;;;;;;1856297;76;21074;-77
2022/01/28 07:41:18;;;;;;;10.93;5.25;;;3.50;99.90;;;;;;1880013;76;21500;-75
2022/01/28 07:43:48;;;;;;;14.38;6.08;;;3.50;99.90;;;;;;1880133;76;21046;-75
2022/01/28 07:46:15;;;;;;;8.48;5.28;;;3.60;99.90;;;;;;1879862;75;21095;-74
2022/01/28 07:48:42;;;;;;;10.48;4.97;;;3.60;99.90;;;;;;1880078;76;21047;-75
2022/01/28 07:51:10;;;;;;;10.95;5.08;;;3.60;99.90;;;;;;1883388;76;21428;-76
2022/01/28 07:53:37;;;;;;;8.18;5.28;;;3.70;99.90;;;;;;1879975;76;21110;-77
2022/01/28 07:56:04;;;;;;;13.50;6.40;;;3.70;99.90;;;;;;1879952;76;21046;-76
2022/01/28 07:58:32;;;;;;;20.08;5.53;;;3.80;99.90;;;;;;1879871;76;21051;-78
2022/01/28 08:00:59;;;;;;;8.35;5.58;;;3.80;99.90;;;;;;1880050;76;21046;-78
2022/01/28 08:03:26;;;;;;;7.90;5.03;;;3.90;99.90;;;;;;1879938;76;21015;-77
2022/01/28 08:05:55;;;;;;;10.90;5.60;;;3.90;99.90;;;;;;1880086;76;21161;-78
2022/01/28 08:08:22;;;;;;;13.38;5.62;;;4.10;99.90;;;;;;1879891;76;21514;-77
2022/01/28 08:10:50;;;;;;;12.65;5.30;;;4.10;99.90;;;;;;1879914;76;21046;-78
2022/01/28 08:13:17;;;;;;;10.63;5.42;;;4.10;99.90;;;;;;1880065;76;21128;-78
2022/01/28 08:15:44;;;;;;;12.10;5.85;;;4.10;99.90;;;;;;1880035;76;21168;-78
2022/01/28 08:18:12;;;;;;;19.17;6.12;;;4.20;99.90;;;;;;1880268;76;21560;-79
2022/01/28 08:20:39;;;;;;;9.78;5.40;;;4.20;99.90;;;;;;1880287;76;21066;-78
2022/01/28 08:23:06;;;;;;;13.95;5.47;;;4.30;99.90;;;;;;1880067;76;21139;-80
2022/01/28 08:25:36;;;;;;;10.30;5.22;;;4.40;99.90;;;;;;1880029;76;21494;-81
2022/01/28 08:28:04;;;;;;;7.92;5.50;;;4.40;99.90;;;;;;1880371;76;21062;-80
2022/01/28 08:30:37;;;;;;;7.67;5.12;;;4.40;99.90;;;;;;1880019;76;21075;-82
2022/01/28 08:33:02;;;;;;;9.33;5.53;;;4.40;99.90;;;;;;1879487;75;21092;-81
2022/01/28 08:35:31;;;;;;;10.08;4.87;;;4.40;99.90;;;;;;1879995;76;21050;-79
2022/01/28 08:37:58;;;;;;;10.15;5.12;;;4.40;99.90;;;;;;1879853;76;21107;-79
2022/01/28 08:40:30;;;;;;;17.27;5.37;;;4.30;99.90;;;;;;1880388;76;21054;-79
2022/01/28 08:42:57;;;;;;;14.15;5.72;;;4.30;99.90;;;;;;1883191;76;21030;-79
2022/01/28 08:45:24;;;;;;;12.33;5.83;;;4.50;99.90;;;;;;1882981;76;21094;-79
2022/01/28 08:47:52;;;;;;;9.88;5.40;;;4.60;99.90;;;;;;1857698;76;21211;-79
2022/01/28 08:50:20;;;;;;;10.28;5.25;;;4.60;99.90;;;;;;1880122;76;21144;-80
2022/01/28 08:52:47;;;;;;;12.00;5.28;;;4.60;99.90;;;;;;1880119;76;21430;-81
2022/01/28 08:55:16;;;;;;;10.88;4.70;;;4.70;99.90;;;;;;1880010;76;21089;-80
2022/01/28 08:57:44;;;;;;;12.45;4.65;;;4.70;99.90;;;;;;1880023;76;21046;-80
2022/01/28 09:00:18;;;;;;;11.90;5.20;;;4.70;99.90;;;;;;1880040;76;21062;-81
2022/01/28 09:02:45;;;;;;;6.10;4.60;;;4.80;99.90;;;;;;1880103;76;21125;-82
2022/01/28 09:05:14;;;;;;;7.22;4.37;;;4.90;99.90;;;;;;1880131;76;21478;-79
2022/01/28 09:07:41;;;;;;;7.17;4.50;;;5.00;99.90;;;;;;1880032;76;21549;-82
2022/01/28 09:10:18;;;;;;;8.68;4.65;;;4.90;99.90;;;;;;1880136;76;21148;-81
2022/01/28 09:13:09;;;;;;;10.15;4.45;;;4.90;99.90;;;;;;1879494;76;21169;-79
2022/01/28 09:15:18;;;;;;;13.65;4.47;;;5.00;99.90;;;;;;1876495;76;21511;-82
2022/01/28 09:17:45;;;;;;;11.18;4.65;;;5.10;99.90;;;;;;1880208;76;21151;-82
2022/01/28 09:20:16;;;;;;;7.50;3.83;;;5.10;99.90;;;;;;1856115;76;21053;-80
2022/01/28 09:22:45;;;;;;;13.80;4.53;;;5.20;99.90;;;;;;1880022;76;21022;-80
2022/01/28 09:25:13;;;;;;;5.25;3.27;;;5.30;99.90;;;;;;1880059;76;21556;-80
2022/01/28 09:27:42;;;;;;;11.12;4.45;;;5.40;99.90;;;;;;1880166;76;21066;-80
2022/01/28 09:30:09;;;;;;;9.03;4.92;;;5.40;99.90;;;;;;1879908;76;21039;-80
2022/01/28 09:32:38;;;;;;;7.33;4.12;;;5.40;99.90;;;;;;1880070;76;21046;-80
2022/01/28 09:35:06;;;;;;;9.43;4.30;;;5.60;99.90;;;;;;1880018;76;21178;-80
2022/01/28 09:37:34;;;;;;;10.98;5.00;;;5.90;99.90;;;;;;1879934;76;21034;-80
2022/01/28 09:40:02;;;;;;;9.85;4.45;;;6.10;99.90;;;;;;1883069;76;21161;-80
2022/01/28 09:42:32;;;;;;;6.40;3.52;;;6.10;99.90;;;;;;1880001;76;21023;-79
2022/01/28 09:45:01;;;;;;;15.98;3.98;;;6.10;99.90;;;;;;1879945;76;21507;-82
2022/01/28 09:47:28;;;;;;;6.65;3.65;;;6.40;99.90;;;;;;1879989;76;21107;-80
2022/01/28 09:49:56;;;;;;;6.53;3.47;;;6.70;99.90;;;;;;1880175;76;21126;-82
2022/01/28 09:52:23;;;;;;;9.18;3.10;;;6.80;99.90;;;;;;1880192;76;21046;-78
2022/01/28 09:54:50;;;;;;;8.58;3.60;;;6.90;99.90;;;;;;1880229;76;21520;-78
2022/01/28 09:57:19;;;;;;;7.12;3.20;;;6.30;99.90;;;;;;1881076;76;21145;-77
2022/01/28 09:59:46;;;;;;;5.78;2.60;;;6.60;99.90;;;;;;1881361;76;21498;-77
2022/01/28 10:02:15;;;;;;;6.58;3.27;;;7.00;99.90;;;;;;1881199;76;21114;-78
2022/01/28 10:04:42;;;;;;;7.55;2.72;;;7.40;99.90;;;;;;1881380;76;21198;-79
2022/01/28 10:07:19;;;;;;;8.33;2.25;;;7.60;99.90;;;;;;1881214;76;21042;-75
2022/01/28 10:09:57;;;;;;;7.55;2.17;;;7.40;99.90;;;;;;1881065;76;21490;-75
2022/01/28 10:13:03;;;;;;;8.18;2.50;;;7.20;99.90;;;;;;1880868;76;21055;-76
2022/01/28 10:15:32;;;;;;;4.58;1.75;;;7.00;99.90;;;;;;1829957;76;21443;-76
2022/01/28 10:17:59;;;;;;;6.87;2.20;;;7.00;99.90;;;;;;1856950;76;21112;-76
2022/01/28 10:20:29;;;;;;;6.85;2.30;;;7.00;99.90;;;;;;1856956;76;21121;-77
2022/01/28 10:22:58;;;;;;;;;;;7.10;99.90;;;;;;1883698;76;21050;-75
2022/01/28 10:25:34;;;;;;;4.42;2.02;;;7.20;99.90;;;;;;1880575;76;20187;-76
2022/01/28 10:28:04;;;;;;;8.43;2.05;;;7.10;99.90;;;;;;1880481;76;21066;-77
2022/01/28 10:30:33;;;;;;;5.83;2.00;;;6.90;99.90;;;;;;1880810;76;21506;-75
2022/01/28 10:33:16;;;;;;;3.72;1.80;;;6.90;99.90;;;;;;1856994;76;21489;-76
2022/01/28 10:35:57;;;;;;;3.83;1.77;;;6.80;99.90;;;;;;1880604;76;21051;-75
2022/01/28 10:38:41;;;;;;;6.20;1.90;;;6.80;99.90;;;;;;1880580;76;21547;-75
2022/01/28 10:41:25;;;;;;;6.95;1.90;;;6.70;99.90;;;;;;1880486;75;21099;-76
2022/01/28 10:43:54;;;;;;;10.23;1.90;;;6.80;99.90;;;;;;1879993;76;21251;-75
2022/01/28 10:46:30;;;;;;;5.58;2.50;;;6.90;99.90;;;;;;1880792;76;21124;-76
2022/01/28 10:49:03;;;;;;;7.83;1.72;;;7.00;99.90;;;;;;1879540;76;21127;-76
2022/01/28 10:51:42;;;;;;;7.75;1.98;;;7.00;99.90;;;;;;1880548;76;21027;-76
2022/01/28 10:54:15;;;;;;;11.27;2.33;;;7.00;99.90;;;;;;1880614;76;21070;-77
2022/01/28 10:56:47;;;;;;;7.03;1.57;;;7.10;99.90;;;;;;1856345;76;21026;-76
2022/01/28 10:59:16;;;;;;;7.92;2.50;;;7.20;99.90;;;;;;1880600;76;21094;-75
2022/01/28 11:01:44;;;;;;;8.38;2.05;;;7.30;99.90;;;;;;1880351;76;21136;-76
2022/01/28 11:04:12;;;;;;;3.15;1.40;;;7.40;99.90;;;;;;1880574;76;21236;-75
2022/01/28 11:06:42;;;;;;;15.80;1.62;;;7.60;99.90;;;;;;1880139;76;21031;-77
2022/01/28 11:09:12;;;;;;;6.33;2.15;;;8.00;99.90;;;;;;1856765;76;21062;-76
2022/01/28 11:11:39;;;;;;;4.97;1.82;;;8.00;99.90;;;;;;1881039;76;21051;-76
2022/01/28 11:14:07;;;;;;;5.85;2.12;;;7.80;99.90;;;;;;1880676;76;21100;-77
2022/01/28 11:16:35;;;;;;;7.50;2.10;;;7.60;99.90;;;;;;1880992;76;21039;-77
2022/01/28 11:19:07;;;;;;;12.68;2.20;;;7.50;99.90;;;;;;1881143;76;21079;-76
2022/01/28 11:22:03;;;;;;;10.23;2.12;;;7.40;99.90;;;;;;1880825;76;21093;-75
2022/01/28 11:24:42;;;;;;;8.08;1.98;;;7.40;99.90;;;;;;1879878;75;21503;-75
2022/01/28 11:27:25;;;;;;;6.03;1.75;;;7.40;99.90;;;;;;1880623;76;21047;-76
2022/01/28 11:30:19;;;;;;;3.47;1.32;;;7.40;99.90;;;;;;1871499;76;21051;-76
2022/01/28 11:32:53;;;;;;;8.88;1.95;;;7.40;99.90;;;;;;1782311;80;21085;-76
2022/01/28 11:35:23;;;;;;;4.53;1.95;;;7.30;99.90;;;;;;1780900;80;21161;-76
2022/01/28 11:37:53;;;;;;;9.15;1.98;;;7.20;99.90;;;;;;1825112;76;21100;-77
2022/01/28 11:40:20;;;;;;;12.68;1.80;;;7.10;99.90;;;;;;1856743;76;21474;-77
2022/01/28 11:42:47;;;;;;;12.28;1.82;;;7.10;99.90;;;;;;1880453;76;21042;-76
2022/01/28 11:45:15;;;;;;;8.20;1.70;;;7.20;99.90;;;;;;1880530;76;21074;-77
2022/01/28 11:47:54;;;;;;;9.18;1.80;;;7.60;99.90;;;;;;1856593;76;21043;-76
2022/01/28 11:50:24;;;;;;;11.22;2.02;;;8.00;99.90;;;;;;1879135;76;21034;-78
2022/01/28 11:52:53;;;;;;;2.50;1.25;;;7.80;99.90;;;;;;1880734;76;21149;-77
2022/01/28 11:55:24;;;;;;;6.37;1.40;;;7.70;99.90;;;;;;1856502;76;21182;-77
2022/01/28 11:58:08;;;;;;;16.40;2.30;;;7.50;99.90;;;;;;1880806;76;21059;-78
2022/01/28 12:00:40;;;;;;;6.25;1.90;;;7.50;99.90;;;;;;1880840;76;21075;-78
2022/01/28 12:03:31;;;;;;;6.58;1.55;;;7.50;99.90;;;;;;1880691;76;21066;-78
2022/01/28 12:06:01;;;;;;;9.23;1.70;;;7.50;99.90;;;;;;1879038;76;21095;-78
2022/01/28 12:08:41;;;;;;;9.80;1.95;;;7.60;99.90;;;;;;1878023;76;21034;-79
2022/01/28 12:11:10;;;;;;;3.50;1.62;;;7.70;99.90;;;;;;1870234;76;21025;-78
2022/01/28 12:14:00;;;;;;;4.97;1.67;;;8.00;99.90;;;;;;1869762;76;21045;-76
2022/01/28 12:16:47;;;;;;;7.80;1.80;;;8.10;99.90;;;;;;1868191;77;21088;-78
2022/01/28 12:19:22;;;;;;;4.90;1.57;;;7.80;99.90;;;;;;1845176;77;21021;-80
2022/01/28 12:22:11;;;;;;;6.67;1.37;;;7.40;99.90;;;;;;1845088;78;21125;-77
2022/01/28 12:24:38;;;;;;;3.77;1.50;;;7.30;99.90;;;;;;1828007;78;21077;-77
2022/01/28 12:27:06;;;;;;;4.20;1.50;;;7.20;99.90;;;;;;1830661;76;21536;-77
2022/01/28 12:29:45;;;;;;;7.00;2.00;;;7.00;99.90;;;;;;1824987;76;21066;-77
2022/01/28 12:32:13;;;;;;;9.33;2.08;;;6.80;99.90;;;;;;1837866;76;21138;-78
2022/01/28 12:34:44;;;;;;;5.05;1.85;;;6.70;99.90;;;;;;1837043;76;21097;-77
2022/01/28 12:37:12;;;;;;;7.62;2.00;;;7.00;99.90;;;;;;1838323;76;21140;-77
2022/01/28 12:39:49;;;;;;;7.87;1.95;;;7.50;99.90;;;;;;1828978;76;21085;-78
2022/01/28 12:42:22;;;;;;;5.25;1.80;;;8.20;99.90;;;;;;1833143;77;21117;-77
2022/01/28 12:44:38;;;;;;;3.52;1.82;;;9.10;99.90;;;;;;1840820;77;21524;-77
2022/01/28 12:50:05;;;;;;;5.55;1.75;;;8.60;99.90;;;;;;1870523;76;21061;-76
2022/01/28 12:52:36;;;;;;;7.50;2.00;;;8.30;99.90;;;;;;1877010;76;21436;-76
2022/01/28 12:55:04;;;;;;;8.00;2.08;;;8.20;99.90;;;;;;1878260;76;21508;-76
2022/01/28 12:57:32;;;;;;;8.78;1.80;;;8.50;99.90;;;;;;1869730;76;21114;-76
2022/01/28 13:00:00;;;;;;;5.15;1.98;;;8.80;99.90;;;;;;1866784;77;21153;-76
2022/01/28 13:02:29;;;;;;;9.98;1.80;;;9.20;99.90;;;;;;1866720;77;21432;-77
2022/01/28 13:05:12;;;;;;;4.92;1.70;;;9.20;99.90;;;;;;1868062;77;21090;-77
2022/01/28 13:10:24;;;;;;;25.23;2.35;;;9.80;99.90;;;;;;1866606;77;21136;-76
2022/01/28 13:12:52;;;;;;;6.67;1.80;;;9.70;99.90;;;;;;1866624;77;21036;-77
2022/01/28 13:15:21;;;;;;;5.33;1.98;;;10.50;99.90;;;;;;1866676;77;21123;-76
2022/01/28 13:17:56;;;;;;;3.72;1.72;;;10.90;99.90;;;;;;1866605;77;21077;-75
2022/01/28 13:20:24;;;;;;;5.75;2.15;;;11.10;99.90;;;;;;1866611;76;21048;-76
2022/01/28 13:22:52;;;;;;;10.05;2.85;;;10.20;99.90;;;;;;1866543;77;21041;-76
2022/01/28 13:25:24;;;;;;;8.08;2.45;;;9.20;99.90;;;;;;1868565;77;21121;-77
2022/01/28 13:28:12;;;;;;;6.60;2.58;;;8.60;99.90;;;;;;1866605;75;21153;-77
2022/01/28 13:30:40;;;;;;;6.25;2.42;;;8.10;99.90;;;;;;1824615;77;21087;-75
2022/01/28 13:33:09;;;;;;;7.37;2.42;;;8.00;99.90;;;;;;1882765;74;21152;-76
2022/01/28 13:35:37;;;;;;;4.97;2.58;;;9.30;99.90;;;;;;1876094;75;21094;-79
2022/01/28 13:38:08;;;;;;;7.65;2.37;;;10.10;99.90;;;;;;1895661;76;21453;-74
2022/01/28 13:40:37;;;;;;;6.55;2.45;;;10.70;99.90;;;;;;1874330;75;21069;-75
2022/01/28 13:43:08;;;;;;;7.70;2.62;;;11.10;99.90;;;;;;1881266;76;21019;-75
2022/01/28 13:45:42;;;;;;;6.45;2.85;;;10.80;99.90;;;;;;1886348;74;21071;-76
2022/01/28 13:48:19;;;;;;;6.62;3.00;;;10.10;99.90;;;;;;1886477;75;21089;-75
2022/01/28 13:50:45;;;;;;;4.37;2.95;;;9.20;99.90;;;;;;1892636;74;21094;-77
2022/01/28 13:56:04;;;;;;;4.80;2.98;;;8.30;99.90;;;;;;1883793;76;21471;-78
2022/01/28 13:58:46;;;;;;;8.25;3.25;;;7.90;99.90;;;;;;1887025;74;21135;-77
2022/01/28 14:01:14;;;;;;;12.55;3.58;;;8.30;99.90;;;;;;1885207;75;21101;-76
2022/01/28 14:03:49;;;;;;;6.65;3.22;;;8.60;99.90;;;;;;1889601;75;21065;-75
2022/01/28 14:06:32;;;;;;;5.95;3.30;;;8.60;99.90;;;;;;1887976;74;21054;-79
2022/01/28 14:09:19;;;;;;;6.60;3.05;;;8.20;99.90;;;;;;1885452;74;21077;-76
2022/01/28 14:11:51;;;;;;;6.30;3.65;;;7.60;99.90;;;;;;1881641;74;21062;-77
2022/01/28 14:14:33;;;;;;;7.80;3.70;;;7.60;99.90;;;;;;1886807;74;21114;-77
2022/01/28 14:17:04;;;;;;;8.00;3.98;;;7.40;99.90;;;;;;1873589;74;21154;-81
2022/01/28 14:19:34;;;;;;;21.02;3.80;;;7.90;99.90;;;;;;1864253;76;21151;-77